sensor_id;sensor_type;location;lat;lon;timestamp;temperature;humidity
17236;DHT22;8734;59.272;17.780;2023-05-29T00:01:57;11.30;99.90
17236;DHT22;8734;59.272;17.780;2023-05-29T00:04:25;11.30;99.90
17236;DHT22;8734;59.272;17.780;2023-05-29T00:06:54;11.30;99.90
17236;DHT22;8734;59.272;17.780;2023-05-29T00:09:22;11.30;99.90
17236;DHT22;8734;59.272;17.780;2023-05-29T00:11:50;11.40;99.90
17236;DHT22;8734;59.272;17.780;2023-05-29T00:14:20;11.30;99.90
17236;DHT22;8734;59.272;17.780;2023-05-29T00:16:49;11.30;99.90
17236;DHT22;8734;59.272;17.780;2023-05-29T00:19:20;11.20;99.90
17236;DHT22;8734;59.272;17.780;2023-05-29T00:21:48;11.10;99.90
17236;DHT22;8734;59.272;17.780;2023-05-29T00:24:17;11.10;99.90
17236;DHT22;8734;59.272;17.780;2023-05-29T00:26:46;11.10;99.90
17236;DHT22;8734;59.272;17.780;2023-05-29T00:29:15;11.10;99.90
17236;DHT22;8734;59.272;17.780;2023-05-29T00:31:43;11.10;99.90
17236;DHT22;8734;59.272;17.780;2023-05-29T00:34:12;11.10;99.90
17236;DHT22;8734;59.272;17.780;2023-05-29T00:36:41;11.10;99.90
17236;DHT22;8734;59.272;17.780;2023-05-29T00:39:10;11.20;99.90
17236;DHT22;8734;59.272;17.780;2023-05-29T00:41:38;11.20;99.90
17236;DHT22;8734;59.272;17.780;2023-05-29T00:44:06;11.20;99.90
17236;DHT22;8734;59.272;17.780;2023-05-29T00:46:35;11.20;99.90
17236;DHT22;8734;59.272;17.780;2023-05-29T00:49:04;11.20;99.90
17236;DHT22;8734;59.272;17.780;2023-05-29T00:51:33;11.20;99.90
17236;DHT22;8734;59.272;17.780;2023-05-29T00:54:07;11.30;99.90
17236;DHT22;8734;59.272;17.780;2023-05-29T00:56:36;11.30;99.90
17236;DHT22;8734;59.272;17.780;2023-05-29T00:59:04;11.30;99.90
17236;DHT22;8734;59.272;17.780;2023-05-29T01:01:33;11.20;99.90
17236;DHT22;8734;59.272;17.780;2023-05-29T01:04:03;11.30;99.90
17236;DHT22;8734;59.272;17.780;2023-05-29T01:06:33;11.30;99.90
17236;DHT22;8734;59.272;17.780;2023-05-29T01:09:02;11.20;99.90
17236;DHT22;8734;59.272;17.780;2023-05-29T01:11:40;11.20;99.90
17236;DHT22;8734;59.272;17.780;2023-05-29T01:14:17;11.20;99.90
17236;DHT22;8734;59.272;17.780;2023-05-29T01:16:51;11.20;99.90
17236;DHT22;8734;59.272;17.780;2023-05-29T01:19:43;11.20;99.90
17236;DHT22;8734;59.272;17.780;2023-05-29T01:22:25;11.20;99.90
17236;DHT22;8734;59.272;17.780;2023-05-29T01:24:58;11.20;99.90
17236;DHT22;8734;59.272;17.780;2023-05-29T01:27:32;11.10;99.90
17236;DHT22;8734;59.272;17.780;2023-05-29T01:30:02;11.10;99.90
17236;DHT22;8734;59.272;17.780;2023-05-29T01:32:31;11.20;99.90
17236;DHT22;8734;59.272;17.780;2023-05-29T01:34:59;11.20;99.90
17236;DHT22;8734;59.272;17.780;2023-05-29T01:37:28;11.20;99.90
17236;DHT22;8734;59.272;17.780;2023-05-29T01:39:56;11.20;99.90
17236;DHT22;8734;59.272;17.780;2023-05-29T01:42:25;11.20;99.90
17236;DHT22;8734;59.272;17.780;2023-05-29T01:44:56;11.10;99.90
17236;DHT22;8734;59.272;17.780;2023-05-29T01:47:25;11.10;99.90
17236;DHT22;8734;59.272;17.780;2023-05-29T01:49:54;11.00;99.90
17236;DHT22;8734;59.272;17.780;2023-05-29T01:52:23;11.00;99.90
17236;DHT22;8734;59.272;17.780;2023-05-29T01:54:52;10.90;99.90
17236;DHT22;8734;59.272;17.780;2023-05-29T01:57:21;10.80;99.90
17236;DHT22;8734;59.272;17.780;2023-05-29T01:59:50;10.70;99.90
17236;DHT22;8734;59.272;17.780;2023-05-29T02:02:21;10.70;99.90
17236;DHT22;8734;59.272;17.780;2023-05-29T02:04:50;10.60;99.90
17236;DHT22;8734;59.272;17.780;2023-05-29T02:07:19;10.60;99.90
17236;DHT22;8734;59.272;17.780;2023-05-29T02:09:48;10.50;99.90
17236;DHT22;8734;59.272;17.780;2023-05-29T02:12:16;10.50;99.90
17236;DHT22;8734;59.272;17.780;2023-05-29T02:14:44;10.40;99.90
17236;DHT22;8734;59.272;17.780;2023-05-29T02:17:13;10.40;99.90
17236;DHT22;8734;59.272;17.780;2023-05-29T02:19:43;10.40;99.90
17236;DHT22;8734;59.272;17.780;2023-05-29T02:22:12;10.30;99.90
17236;DHT22;8734;59.272;17.780;2023-05-29T02:24:40;10.30;99.90
17236;DHT22;8734;59.272;17.780;2023-05-29T02:27:08;10.30;99.90
17236;DHT22;8734;59.272;17.780;2023-05-29T02:29:37;10.20;99.90
17236;DHT22;8734;59.272;17.780;2023-05-29T02:32:05;10.20;99.90
17236;DHT22;8734;59.272;17.780;2023-05-29T02:34:34;10.20;99.90
17236;DHT22;8734;59.272;17.780;2023-05-29T02:37:04;10.20;99.90
17236;DHT22;8734;59.272;17.780;2023-05-29T02:39:32;10.20;99.90
17236;DHT22;8734;59.272;17.780;2023-05-29T02:42:01;10.20;99.90
17236;DHT22;8734;59.272;17.780;2023-05-29T02:44:29;10.10;99.90
17236;DHT22;8734;59.272;17.780;2023-05-29T02:46:57;10.10;99.90
17236;DHT22;8734;59.272;17.780;2023-05-29T02:49:26;10.10;99.90
17236;DHT22;8734;59.272;17.780;2023-05-29T02:51:54;10.10;99.90
17236;DHT22;8734;59.272;17.780;2023-05-29T02:54:25;10.00;99.90
17236;DHT22;8734;59.272;17.780;2023-05-29T02:56:53;10.00;99.90
17236;DHT22;8734;59.272;17.780;2023-05-29T02:59:22;10.00;99.90
17236;DHT22;8734;59.272;17.780;2023-05-29T03:01:50;10.00;99.90
17236;DHT22;8734;59.272;17.780;2023-05-29T03:04:19;9.90;99.90
17236;DHT22;8734;59.272;17.780;2023-05-29T03:06:47;9.90;99.90
17236;DHT22;8734;59.272;17.780;2023-05-29T03:09:16;9.90;99.90
17236;DHT22;8734;59.272;17.780;2023-05-29T03:11:46;9.90;99.90
17236;DHT22;8734;59.272;17.780;2023-05-29T03:14:16;9.90;99.90
17236;DHT22;8734;59.272;17.780;2023-05-29T03:16:45;9.90;99.90
17236;DHT22;8734;59.272;17.780;2023-05-29T03:19:13;9.90;99.90
17236;DHT22;8734;59.272;17.780;2023-05-29T03:21:42;9.90;99.90
17236;DHT22;8734;59.272;17.780;2023-05-29T03:24:10;9.90;99.90
17236;DHT22;8734;59.272;17.780;2023-05-29T03:26:40;9.90;99.90
17236;DHT22;8734;59.272;17.780;2023-05-29T03:29:09;10.00;99.90
17236;DHT22;8734;59.272;17.780;2023-05-29T03:31:38;9.90;99.90
17236;DHT22;8734;59.272;17.780;2023-05-29T03:34:06;9.90;99.90
17236;DHT22;8734;59.272;17.780;2023-05-29T03:36:34;9.80;99.90
17236;DHT22;8734;59.272;17.780;2023-05-29T03:39:03;9.80;99.90
17236;DHT22;8734;59.272;17.780;2023-05-29T03:41:31;9.80;99.90
17236;DHT22;8734;59.272;17.780;2023-05-29T03:44:00;9.90;99.90
17236;DHT22;8734;59.272;17.780;2023-05-29T03:46:30;10.00;99.90
17236;DHT22;8734;59.272;17.780;2023-05-29T03:48:59;10.00;99.90
17236;DHT22;8734;59.272;17.780;2023-05-29T03:51:27;10.00;99.90
17236;DHT22;8734;59.272;17.780;2023-05-29T03:53:55;10.10;99.90
17236;DHT22;8734;59.272;17.780;2023-05-29T03:56:23;10.00;99.90
17236;DHT22;8734;59.272;17.780;2023-05-29T03:58:52;9.90;99.90
17236;DHT22;8734;59.272;17.780;2023-05-29T04:01:20;9.80;99.90
17236;DHT22;8734;59.272;17.780;2023-05-29T04:03:50;9.80;99.90
17236;DHT22;8734;59.272;17.780;2023-05-29T04:06:18;9.80;99.90
17236;DHT22;8734;59.272;17.780;2023-05-29T04:08:46;9.70;99.90
17236;DHT22;8734;59.272;17.780;2023-05-29T04:11:15;9.70;99.90
17236;DHT22;8734;59.272;17.780;2023-05-29T04:13:43;9.70;99.90
17236;DHT22;8734;59.272;17.780;2023-05-29T04:16:13;9.70;99.90
17236;DHT22;8734;59.272;17.780;2023-05-29T04:18:42;9.70;99.90
17236;DHT22;8734;59.272;17.780;2023-05-29T04:21:11;9.70;99.90
17236;DHT22;8734;59.272;17.780;2023-05-29T04:23:40;9.70;99.90
17236;DHT22;8734;59.272;17.780;2023-05-29T04:26:08;9.70;99.90
17236;DHT22;8734;59.272;17.780;2023-05-29T04:28:37;9.70;99.90
17236;DHT22;8734;59.272;17.780;2023-05-29T04:31:06;9.70;99.90
17236;DHT22;8734;59.272;17.780;2023-05-29T04:33:34;9.70;99.90
17236;DHT22;8734;59.272;17.780;2023-05-29T04:36:04;9.70;99.90
17236;DHT22;8734;59.272;17.780;2023-05-29T04:38:34;9.60;99.90
17236;DHT22;8734;59.272;17.780;2023-05-29T04:41:03;9.70;99.90
17236;DHT22;8734;59.272;17.780;2023-05-29T04:43:35;9.70;99.90
17236;DHT22;8734;59.272;17.780;2023-05-29T04:46:03;9.80;99.90
17236;DHT22;8734;59.272;17.780;2023-05-29T04:48:32;9.90;99.90
17236;DHT22;8734;59.272;17.780;2023-05-29T04:51:01;9.80;99.90
17236;DHT22;8734;59.272;17.780;2023-05-29T04:53:29;9.90;99.90
17236;DHT22;8734;59.272;17.780;2023-05-29T04:55:59;9.90;99.90
17236;DHT22;8734;59.272;17.780;2023-05-29T04:58:27;9.80;99.90
17236;DHT22;8734;59.272;17.780;2023-05-29T05:00:55;9.70;99.90
17236;DHT22;8734;59.272;17.780;2023-05-29T05:03:24;9.70;99.90
17236;DHT22;8734;59.272;17.780;2023-05-29T05:05:53;9.70;99.90
17236;DHT22;8734;59.272;17.780;2023-05-29T05:08:21;9.80;99.90
17236;DHT22;8734;59.272;17.780;2023-05-29T05:10:50;9.90;99.90
17236;DHT22;8734;59.272;17.780;2023-05-29T05:13:19;9.90;99.90
17236;DHT22;8734;59.272;17.780;2023-05-29T05:15:48;10.00;99.90
17236;DHT22;8734;59.272;17.780;2023-05-29T05:18:16;9.90;99.90
17236;DHT22;8734;59.272;17.780;2023-05-29T05:20:44;10.00;99.90
17236;DHT22;8734;59.272;17.780;2023-05-29T05:23:13;10.00;99.90
17236;DHT22;8734;59.272;17.780;2023-05-29T05:25:41;10.10;99.90
17236;DHT22;8734;59.272;17.780;2023-05-29T05:28:10;10.10;99.90
17236;DHT22;8734;59.272;17.780;2023-05-29T05:30:39;10.20;99.90
17236;DHT22;8734;59.272;17.780;2023-05-29T05:33:07;10.20;99.90
17236;DHT22;8734;59.272;17.780;2023-05-29T05:35:36;10.30;99.90
17236;DHT22;8734;59.272;17.780;2023-05-29T05:38:04;10.20;99.90
17236;DHT22;8734;59.272;17.780;2023-05-29T05:40:33;10.20;99.90
17236;DHT22;8734;59.272;17.780;2023-05-29T05:43:01;10.30;99.90
17236;DHT22;8734;59.272;17.780;2023-05-29T05:45:29;10.40;99.90
17236;DHT22;8734;59.272;17.780;2023-05-29T05:47:59;10.50;99.90
17236;DHT22;8734;59.272;17.780;2023-05-29T05:50:28;10.50;99.90
17236;DHT22;8734;59.272;17.780;2023-05-29T05:52:56;10.60;99.90
17236;DHT22;8734;59.272;17.780;2023-05-29T05:55:25;10.60;99.90
17236;DHT22;8734;59.272;17.780;2023-05-29T05:57:54;10.60;99.90
17236;DHT22;8734;59.272;17.780;2023-05-29T06:00:23;10.60;99.90
17236;DHT22;8734;59.272;17.780;2023-05-29T06:02:52;10.60;99.90
17236;DHT22;8734;59.272;17.780;2023-05-29T06:05:22;10.70;99.90
17236;DHT22;8734;59.272;17.780;2023-05-29T06:07:50;10.80;99.90
17236;DHT22;8734;59.272;17.780;2023-05-29T06:10:19;11.00;99.90
17236;DHT22;8734;59.272;17.780;2023-05-29T06:12:47;11.00;99.90
17236;DHT22;8734;59.272;17.780;2023-05-29T06:15:16;11.10;99.90
17236;DHT22;8734;59.272;17.780;2023-05-29T06:17:44;11.20;99.90
17236;DHT22;8734;59.272;17.780;2023-05-29T06:20:12;11.30;99.90
17236;DHT22;8734;59.272;17.780;2023-05-29T06:22:42;11.60;99.90
17236;DHT22;8734;59.272;17.780;2023-05-29T06:25:18;11.70;99.90
17236;DHT22;8734;59.272;17.780;2023-05-29T06:27:46;11.70;99.90
17236;DHT22;8734;59.272;17.780;2023-05-29T06:30:15;11.80;99.90
17236;DHT22;8734;59.272;17.780;2023-05-29T06:32:43;11.80;99.90
17236;DHT22;8734;59.272;17.780;2023-05-29T06:35:12;11.80;99.90
17236;DHT22;8734;59.272;17.780;2023-05-29T06:37:41;11.70;99.90
17236;DHT22;8734;59.272;17.780;2023-05-29T06:40:11;11.50;99.90
17236;DHT22;8734;59.272;17.780;2023-05-29T06:42:39;11.50;99.90
17236;DHT22;8734;59.272;17.780;2023-05-29T06:45:08;11.50;99.90
17236;DHT22;8734;59.272;17.780;2023-05-29T06:47:37;11.60;99.90
17236;DHT22;8734;59.272;17.780;2023-05-29T06:50:06;11.70;99.90
17236;DHT22;8734;59.272;17.780;2023-05-29T06:52:34;11.90;99.90
17236;DHT22;8734;59.272;17.780;2023-05-29T06:55:05;12.00;99.90
17236;DHT22;8734;59.272;17.780;2023-05-29T06:57:34;12.00;99.90
17236;DHT22;8734;59.272;17.780;2023-05-29T07:00:02;12.00;99.90
17236;DHT22;8734;59.272;17.780;2023-05-29T07:02:33;12.20;99.90
17236;DHT22;8734;59.272;17.780;2023-05-29T07:05:01;12.40;99.90
17236;DHT22;8734;59.272;17.780;2023-05-29T07:07:30;12.30;99.90
17236;DHT22;8734;59.272;17.780;2023-05-29T07:09:58;12.40;99.90
17236;DHT22;8734;59.272;17.780;2023-05-29T07:12:28;12.40;99.90
17236;DHT22;8734;59.272;17.780;2023-05-29T07:14:56;12.40;99.90
17236;DHT22;8734;59.272;17.780;2023-05-29T07:17:25;12.60;99.90
17236;DHT22;8734;59.272;17.780;2023-05-29T07:19:53;12.70;99.90
17236;DHT22;8734;59.272;17.780;2023-05-29T07:22:21;13.10;99.90
17236;DHT22;8734;59.272;17.780;2023-05-29T07:24:50;13.70;99.90
17236;DHT22;8734;59.272;17.780;2023-05-29T07:27:18;13.80;99.90
17236;DHT22;8734;59.272;17.780;2023-05-29T07:29:48;13.50;99.90
17236;DHT22;8734;59.272;17.780;2023-05-29T07:32:17;13.60;99.90
17236;DHT22;8734;59.272;17.780;2023-05-29T07:34:46;14.00;99.90
17236;DHT22;8734;59.272;17.780;2023-05-29T07:37:16;14.50;99.90
17236;DHT22;8734;59.272;17.780;2023-05-29T07:39:45;14.90;99.90
17236;DHT22;8734;59.272;17.780;2023-05-29T07:42:14;14.80;99.90
17236;DHT22;8734;59.272;17.780;2023-05-29T07:44:42;14.80;99.90
17236;DHT22;8734;59.272;17.780;2023-05-29T07:47:12;15.30;99.90
17236;DHT22;8734;59.272;17.780;2023-05-29T07:49:41;15.60;99.90
17236;DHT22;8734;59.272;17.780;2023-05-29T07:52:09;15.80;99.90
17236;DHT22;8734;59.272;17.780;2023-05-29T07:54:38;15.50;99.90
17236;DHT22;8734;59.272;17.780;2023-05-29T07:57:06;15.50;99.90
17236;DHT22;8734;59.272;17.780;2023-05-29T07:59:37;15.20;99.90
17236;DHT22;8734;59.272;17.780;2023-05-29T08:02:05;15.80;99.90
17236;DHT22;8734;59.272;17.780;2023-05-29T08:04:35;16.00;99.90
17236;DHT22;8734;59.272;17.780;2023-05-29T08:07:04;15.90;99.90
17236;DHT22;8734;59.272;17.780;2023-05-29T08:09:32;16.00;99.90
17236;DHT22;8734;59.272;17.780;2023-05-29T08:12:00;16.50;99.90
17236;DHT22;8734;59.272;17.780;2023-05-29T08:14:29;16.80;99.90
17236;DHT22;8734;59.272;17.780;2023-05-29T08:16:58;17.10;99.90
17236;DHT22;8734;59.272;17.780;2023-05-29T08:19:26;17.40;99.90
17236;DHT22;8734;59.272;17.780;2023-05-29T08:21:56;17.50;99.90
17236;DHT22;8734;59.272;17.780;2023-05-29T08:24:24;17.40;99.90
17236;DHT22;8734;59.272;17.780;2023-05-29T08:26:54;17.30;99.90
17236;DHT22;8734;59.272;17.780;2023-05-29T08:29:23;17.40;99.90
17236;DHT22;8734;59.272;17.780;2023-05-29T08:31:52;17.60;99.90
17236;DHT22;8734;59.272;17.780;2023-05-29T08:34:20;17.80;99.90
17236;DHT22;8734;59.272;17.780;2023-05-29T08:36:51;17.90;99.90
17236;DHT22;8734;59.272;17.780;2023-05-29T08:39:23;18.00;99.90
17236;DHT22;8734;59.272;17.780;2023-05-29T08:41:56;18.50;99.90
17236;DHT22;8734;59.272;17.780;2023-05-29T08:44:30;18.60;99.90
17236;DHT22;8734;59.272;17.780;2023-05-29T08:47:02;18.60;99.90
17236;DHT22;8734;59.272;17.780;2023-05-29T08:49:37;18.70;99.90
17236;DHT22;8734;59.272;17.780;2023-05-29T08:52:12;18.90;99.90
17236;DHT22;8734;59.272;17.780;2023-05-29T08:54:43;19.10;99.90
17236;DHT22;8734;59.272;17.780;2023-05-29T08:57:12;19.30;99.90
17236;DHT22;8734;59.272;17.780;2023-05-29T08:59:43;19.00;99.90
17236;DHT22;8734;59.272;17.780;2023-05-29T09:02:11;18.30;99.90
17236;DHT22;8734;59.272;17.780;2023-05-29T09:04:41;18.50;99.90
17236;DHT22;8734;59.272;17.780;2023-05-29T09:07:11;19.00;99.90
17236;DHT22;8734;59.272;17.780;2023-05-29T09:09:42;19.20;99.90
17236;DHT22;8734;59.272;17.780;2023-05-29T09:12:11;19.30;99.90
17236;DHT22;8734;59.272;17.780;2023-05-29T09:14:41;19.70;99.90
17236;DHT22;8734;59.272;17.780;2023-05-29T09:17:10;19.80;99.90
17236;DHT22;8734;59.272;17.780;2023-05-29T09:19:39;19.30;99.90
17236;DHT22;8734;59.272;17.780;2023-05-29T09:22:09;19.00;99.90
17236;DHT22;8734;59.272;17.780;2023-05-29T09:24:39;19.40;99.90
17236;DHT22;8734;59.272;17.780;2023-05-29T09:27:09;19.40;99.90
17236;DHT22;8734;59.272;17.780;2023-05-29T09:29:39;19.60;99.90
17236;DHT22;8734;59.272;17.780;2023-05-29T09:32:08;19.60;99.90
17236;DHT22;8734;59.272;17.780;2023-05-29T09:34:37;19.90;99.90
17236;DHT22;8734;59.272;17.780;2023-05-29T09:37:07;19.90;99.90
17236;DHT22;8734;59.272;17.780;2023-05-29T09:39:45;19.90;99.90
17236;DHT22;8734;59.272;17.780;2023-05-29T09:42:15;19.80;99.90
17236;DHT22;8734;59.272;17.780;2023-05-29T09:44:45;19.70;99.90
17236;DHT22;8734;59.272;17.780;2023-05-29T09:47:16;19.50;99.90
17236;DHT22;8734;59.272;17.780;2023-05-29T09:49:45;19.70;99.90
17236;DHT22;8734;59.272;17.780;2023-05-29T09:52:14;19.40;99.90
17236;DHT22;8734;59.272;17.780;2023-05-29T09:54:43;19.60;99.90
17236;DHT22;8734;59.272;17.780;2023-05-29T09:57:16;19.40;99.90
17236;DHT22;8734;59.272;17.780;2023-05-29T09:59:44;19.90;99.90
17236;DHT22;8734;59.272;17.780;2023-05-29T10:02:18;19.90;99.90
17236;DHT22;8734;59.272;17.780;2023-05-29T10:04:48;20.30;99.90
17236;DHT22;8734;59.272;17.780;2023-05-29T10:07:22;20.20;99.90
17236;DHT22;8734;59.272;17.780;2023-05-29T10:09:59;19.80;99.90
17236;DHT22;8734;59.272;17.780;2023-05-29T10:12:31;19.40;99.90
17236;DHT22;8734;59.272;17.780;2023-05-29T10:15:02;19.60;99.90
17236;DHT22;8734;59.272;17.780;2023-05-29T10:17:34;19.40;99.90
17236;DHT22;8734;59.272;17.780;2023-05-29T10:20:05;19.20;99.90
17236;DHT22;8734;59.272;17.780;2023-05-29T10:22:37;19.50;99.90
17236;DHT22;8734;59.272;17.780;2023-05-29T10:25:09;19.70;99.90
17236;DHT22;8734;59.272;17.780;2023-05-29T10:27:39;19.80;99.90
17236;DHT22;8734;59.272;17.780;2023-05-29T10:30:11;19.40;99.90
17236;DHT22;8734;59.272;17.780;2023-05-29T10:32:56;18.90;99.90
17236;DHT22;8734;59.272;17.780;2023-05-29T10:35:31;19.30;99.90
17236;DHT22;8734;59.272;17.780;2023-05-29T10:38:11;19.80;99.90
17236;DHT22;8734;59.272;17.780;2023-05-29T10:40:41;20.10;99.90
17236;DHT22;8734;59.272;17.780;2023-05-29T10:43:30;20.20;99.90
17236;DHT22;8734;59.272;17.780;2023-05-29T10:45:59;20.30;99.90
17236;DHT22;8734;59.272;17.780;2023-05-29T10:48:39;20.30;99.60
17236;DHT22;8734;59.272;17.780;2023-05-29T10:51:08;20.70;99.60
17236;DHT22;8734;59.272;17.780;2023-05-29T10:53:40;21.20;99.70
17236;DHT22;8734;59.272;17.780;2023-05-29T10:56:15;21.20;98.20
17236;DHT22;8734;59.272;17.780;2023-05-29T10:58:52;20.70;99.70
17236;DHT22;8734;59.272;17.780;2023-05-29T11:01:22;20.30;99.90
17236;DHT22;8734;59.272;17.780;2023-05-29T11:03:53;20.10;99.20
17236;DHT22;8734;59.272;17.780;2023-05-29T11:06:22;19.80;99.50
17236;DHT22;8734;59.272;17.780;2023-05-29T11:08:55;19.50;99.30
17236;DHT22;8734;59.272;17.780;2023-05-29T11:11:31;19.00;99.90
17236;DHT22;8734;59.272;17.780;2023-05-29T11:14:05;18.90;99.90
17236;DHT22;8734;59.272;17.780;2023-05-29T11:16:37;19.00;99.90
17236;DHT22;8734;59.272;17.780;2023-05-29T11:19:07;19.50;99.80
17236;DHT22;8734;59.272;17.780;2023-05-29T11:21:53;19.60;99.60
17236;DHT22;8734;59.272;17.780;2023-05-29T11:24:27;19.80;99.90
17236;DHT22;8734;59.272;17.780;2023-05-29T11:26:57;19.80;99.10
17236;DHT22;8734;59.272;17.780;2023-05-29T11:29:32;19.80;99.40
17236;DHT22;8734;59.272;17.780;2023-05-29T11:32:02;20.00;99.40
17236;DHT22;8734;59.272;17.780;2023-05-29T11:34:32;20.00;98.70
17236;DHT22;8734;59.272;17.780;2023-05-29T11:37:02;20.00;98.60
17236;DHT22;8734;59.272;17.780;2023-05-29T11:39:31;20.30;99.10
17236;DHT22;8734;59.272;17.780;2023-05-29T11:42:03;20.50;99.50
17236;DHT22;8734;59.272;17.780;2023-05-29T11:44:34;20.40;99.40
17236;DHT22;8734;59.272;17.780;2023-05-29T11:47:05;20.20;99.50
17236;DHT22;8734;59.272;17.780;2023-05-29T11:49:35;20.10;99.30
17236;DHT22;8734;59.272;17.780;2023-05-29T11:52:08;20.20;99.10
17236;DHT22;8734;59.272;17.780;2023-05-29T11:54:42;20.10;99.40
17236;DHT22;8734;59.272;17.780;2023-05-29T11:57:18;20.20;98.50
17236;DHT22;8734;59.272;17.780;2023-05-29T11:59:49;20.00;98.20
17236;DHT22;8734;59.272;17.780;2023-05-29T12:02:19;19.90;99.00
17236;DHT22;8734;59.272;17.780;2023-05-29T12:05:00;19.90;99.00
17236;DHT22;8734;59.272;17.780;2023-05-29T12:07:28;19.50;99.60
17236;DHT22;8734;59.272;17.780;2023-05-29T12:09:57;19.80;99.90
17236;DHT22;8734;59.272;17.780;2023-05-29T12:12:25;20.10;99.40
17236;DHT22;8734;59.272;17.780;2023-05-29T12:14:57;20.30;99.10
17236;DHT22;8734;59.272;17.780;2023-05-29T12:17:26;20.40;98.70
17236;DHT22;8734;59.272;17.780;2023-05-29T12:19:57;20.10;99.90
17236;DHT22;8734;59.272;17.780;2023-05-29T12:22:33;20.20;99.90
17236;DHT22;8734;59.272;17.780;2023-05-29T12:25:06;20.40;99.90
17236;DHT22;8734;59.272;17.780;2023-05-29T12:27:36;20.20;99.90
17236;DHT22;8734;59.272;17.780;2023-05-29T12:30:11;20.00;99.70
17236;DHT22;8734;59.272;17.780;2023-05-29T12:32:54;19.90;98.20
17236;DHT22;8734;59.272;17.780;2023-05-29T12:35:24;20.10;98.60
17236;DHT22;8734;59.272;17.780;2023-05-29T12:37:55;20.30;99.90
17236;DHT22;8734;59.272;17.780;2023-05-29T12:40:24;20.00;98.00
17236;DHT22;8734;59.272;17.780;2023-05-29T12:42:54;19.90;99.90
17236;DHT22;8734;59.272;17.780;2023-05-29T12:45:26;19.60;97.90
17236;DHT22;8734;59.272;17.780;2023-05-29T12:47:56;19.40;99.80
17236;DHT22;8734;59.272;17.780;2023-05-29T12:50:25;19.60;99.80
17236;DHT22;8734;59.272;17.780;2023-05-29T12:52:58;18.90;99.60
17236;DHT22;8734;59.272;17.780;2023-05-29T12:55:27;18.60;99.90
17236;DHT22;8734;59.272;17.780;2023-05-29T12:57:55;18.80;99.90
17236;DHT22;8734;59.272;17.780;2023-05-29T13:00:25;19.00;99.90
17236;DHT22;8734;59.272;17.780;2023-05-29T13:02:54;19.10;99.90
17236;DHT22;8734;59.272;17.780;2023-05-29T13:05:22;19.10;99.90
17236;DHT22;8734;59.272;17.780;2023-05-29T13:07:51;18.50;99.90
17236;DHT22;8734;59.272;17.780;2023-05-29T13:10:20;18.20;99.90
17236;DHT22;8734;59.272;17.780;2023-05-29T13:12:49;18.20;99.90
17236;DHT22;8734;59.272;17.780;2023-05-29T13:15:22;18.50;99.90
17236;DHT22;8734;59.272;17.780;2023-05-29T13:17:52;18.70;99.90
17236;DHT22;8734;59.272;17.780;2023-05-29T13:20:21;18.80;99.90
17236;DHT22;8734;59.272;17.780;2023-05-29T13:22:49;19.10;99.90
17236;DHT22;8734;59.272;17.780;2023-05-29T13:25:18;18.50;99.90
17236;DHT22;8734;59.272;17.780;2023-05-29T13:27:48;18.30;99.90
17236;DHT22;8734;59.272;17.780;2023-05-29T13:30:17;18.10;99.90
17236;DHT22;8734;59.272;17.780;2023-05-29T13:32:45;18.30;99.90
17236;DHT22;8734;59.272;17.780;2023-05-29T13:35:15;18.10;99.90
17236;DHT22;8734;59.272;17.780;2023-05-29T13:37:43;17.70;99.90
17236;DHT22;8734;59.272;17.780;2023-05-29T13:40:12;17.30;99.90
17236;DHT22;8734;59.272;17.780;2023-05-29T13:42:41;17.30;99.90
17236;DHT22;8734;59.272;17.780;2023-05-29T13:45:10;17.20;99.90
17236;DHT22;8734;59.272;17.780;2023-05-29T13:47:39;17.20;99.90
17236;DHT22;8734;59.272;17.780;2023-05-29T13:50:08;17.60;99.90
17236;DHT22;8734;59.272;17.780;2023-05-29T13:52:38;17.80;99.90
17236;DHT22;8734;59.272;17.780;2023-05-29T13:55:07;17.90;99.90
17236;DHT22;8734;59.272;17.780;2023-05-29T13:57:36;18.30;99.90
17236;DHT22;8734;59.272;17.780;2023-05-29T14:00:05;17.90;99.90
17236;DHT22;8734;59.272;17.780;2023-05-29T14:02:34;17.70;99.90
17236;DHT22;8734;59.272;17.780;2023-05-29T14:05:03;17.70;99.90
17236;DHT22;8734;59.272;17.780;2023-05-29T14:07:33;17.30;99.90
17236;DHT22;8734;59.272;17.780;2023-05-29T14:10:03;17.10;99.90
17236;DHT22;8734;59.272;17.780;2023-05-29T14:12:31;17.10;99.90
17236;DHT22;8734;59.272;17.780;2023-05-29T14:14:59;17.00;99.90
17236;DHT22;8734;59.272;17.780;2023-05-29T14:17:28;17.10;99.90
17236;DHT22;8734;59.272;17.780;2023-05-29T14:19:56;17.40;99.90
17236;DHT22;8734;59.272;17.780;2023-05-29T14:22:24;17.40;99.90
17236;DHT22;8734;59.272;17.780;2023-05-29T14:24:53;17.80;99.90
17236;DHT22;8734;59.272;17.780;2023-05-29T14:27:24;17.70;99.90
17236;DHT22;8734;59.272;17.780;2023-05-29T14:29:52;17.70;99.90
17236;DHT22;8734;59.272;17.780;2023-05-29T14:32:20;17.60;99.90
17236;DHT22;8734;59.272;17.780;2023-05-29T14:34:49;17.50;99.90
17236;DHT22;8734;59.272;17.780;2023-05-29T14:37:18;17.30;99.90
17236;DHT22;8734;59.272;17.780;2023-05-29T14:39:46;17.30;99.90
17236;DHT22;8734;59.272;17.780;2023-05-29T14:42:15;17.50;99.90
17236;DHT22;8734;59.272;17.780;2023-05-29T14:44:45;17.60;99.90
17236;DHT22;8734;59.272;17.780;2023-05-29T14:47:13;17.80;99.90
17236;DHT22;8734;59.272;17.780;2023-05-29T14:49:42;17.90;99.90
17236;DHT22;8734;59.272;17.780;2023-05-29T14:52:10;17.80;99.90
17236;DHT22;8734;59.272;17.780;2023-05-29T14:54:38;18.00;99.90
17236;DHT22;8734;59.272;17.780;2023-05-29T14:57:07;18.10;99.90
17236;DHT22;8734;59.272;17.780;2023-05-29T14:59:35;18.10;99.90
17236;DHT22;8734;59.272;17.780;2023-05-29T15:02:05;18.40;99.90
17236;DHT22;8734;59.272;17.780;2023-05-29T15:04:33;18.50;99.90
17236;DHT22;8734;59.272;17.780;2023-05-29T15:07:02;18.90;99.90
17236;DHT22;8734;59.272;17.780;2023-05-29T15:09:32;18.60;99.90
17236;DHT22;8734;59.272;17.780;2023-05-29T15:12:01;18.10;99.90
17236;DHT22;8734;59.272;17.780;2023-05-29T15:14:30;17.90;99.90
17236;DHT22;8734;59.272;17.780;2023-05-29T15:16:58;17.50;99.90
17236;DHT22;8734;59.272;17.780;2023-05-29T15:19:28;17.50;99.90
17236;DHT22;8734;59.272;17.780;2023-05-29T15:21:57;17.80;99.90
17236;DHT22;8734;59.272;17.780;2023-05-29T15:24:25;18.00;99.90
17236;DHT22;8734;59.272;17.780;2023-05-29T15:26:54;17.70;99.90
17236;DHT22;8734;59.272;17.780;2023-05-29T15:29:26;17.70;99.90
17236;DHT22;8734;59.272;17.780;2023-05-29T15:31:54;17.70;99.90
17236;DHT22;8734;59.272;17.780;2023-05-29T15:34:22;17.60;99.90
17236;DHT22;8734;59.272;17.780;2023-05-29T15:36:52;17.70;99.90
17236;DHT22;8734;59.272;17.780;2023-05-29T15:39:20;17.60;99.90
17236;DHT22;8734;59.272;17.780;2023-05-29T15:41:49;17.80;99.90
17236;DHT22;8734;59.272;17.780;2023-05-29T15:44:17;18.00;99.90
17236;DHT22;8734;59.272;17.780;2023-05-29T15:46:45;18.10;99.90
17236;DHT22;8734;59.272;17.780;2023-05-29T15:49:14;17.70;99.90